Relevés horaires Antwerpen / Deurne (Belgique)


Relevés horaires à Antwerpen / Deurne - Samedi 27 Mai 2017
Heure UTC1 Température [°C] Vent [km/h] Hum. [%] Pres.4 [hPa] Visi. [Km] Nébu. [octa] Préc.5 [mm] Cond.
2m. Res. Ros. Dir.2 Vit. Moy. Raf.3
23:00 19.5 19.5 13.3 O 5.6 7.4 11.1 67 1018.3(0.7/3h) 40 0/8 -- --
22:00 19.8 19.8 14.3 NO 5.6 7.4 9.3 71 1018.2(1.5/3h) 30 0/8 -- --
21:00 20.4 20.4 14.6 NNO 5.6 13.0 18.5 69 1018.1(2.0/3h) 30 1/8 -- --
20:00 20.3 20.3 14.2 NNO 9.3 11.1 14.8 68 1017.6(1.6/3h) 30 2/8 -- --
19:00 21.0 21.0 14.2 NO 9.3 13.0 18.5 65 1016.7(1.5/3h) 30 3/8 -- --
18:00 23.0 23.0 15.9 NO 11.1 13.0 18.5 64 1016.1(1.0/3h) 40 2/8 0/12h
--
17:00 24.5 24.5 16.5 NO 11.1 13.0 16.7 61 1015.9(0.9/3h) 40 2/8 -- --
16:00 31.1 31.1 13.0 SO 5.6 7.4 14.8 33 1015.2(-0.1/3h) 40 3/8 -- --
15:00 31.0 31.0 11.0 SSO 7.4 11.1 16.7 29 1015.1(-0.5/3h) 40 1/8 -- --
14:00 31.1 31.1 11.3 SSE 7.4 9.3 14.8 30 1015(-0.5/3h) 40 1/8 -- --
13:00 31.1 31.1 11.5 SO 5.6 11.1 16.7 30 1015.3(-0.6/3h) 40 2/8 -- --
12:00 31.0 31.0 11.3 S 7.4 11.1 16.7 30 1015.6(-0.3/3h) 40 1/8 0/6h
--
11:00 29.6 29.6 11.7 SSE 11.1 11.1 14.8 33 1015.5(-0.8/3h) 40 1/8 -- --
10:00 28.2 28.2 13.4 SSE 9.3 11.1 14.8 40 1016(-0.9/3h) 40 1/8 -- --
09:00 26.1 26.1 12.3 SE 9.3 11.1 13.0 42 1015.9(-0.9/3h) 40 1/8 -- --
08:00 24.0 24.0 12.4 SSE 9.3 9.3 13.0 48 1016.4(-0.7/3h) 40 1/8 -- --
07:00 21.8 21.8 12.7 SSE 7.4 9.3 13.0 56 1016.9(-0.2/3h) 40 0/8 -- --
06:00 18.9 18.9 13.4 ESE 5.6 7.4 11.1 70 1016.9(-0.3/3h) 30 0/8 trace/12h
--
05:00 16.0 16.0 12.5 ESE 3.7 5.6 7.4 80 1017.1(-0.1/3h) 30 0/8 -- --
04:00 14.4 14.4 11.6 ESE 3.7 5.6 5.6 83 1017.2(0.2/3h) 30 0/8 -- --
03:00 13.7 13.7 10.9 E 3.7 5.6 7.4 83 1017.2(0.1/3h) 30 0/8 -- --
02:00 16.6 16.6 12.1 ESE 1.9 5.6 5.6 75 1017.2(-0.2/3h) 35 0/8 -- --
01:00 16.7 16.7 12.3 ESE 5.6 5.6 7.4 75 1017(0.0/3h) 45 0/8 -- --
00:00 17.6 17.6 12.4 E 3.7 11.1 14.8 72 1017.1(0.1/3h) 45 0/8 0/6h
0.1/24h
--

1 Coordinated Universal Time. Actuellement il est 05:00 locale et 04:00 UTC.

2 Le vent souffle depuis la direction indiquée vers la direction oposée.

3 Les rafales max. sont disponible 40 min après l'heure du relevé.

4 Pour les stations d'altitude (plus de 600m) le géopotentiel du niveau le plus proche de la pression obligatoire est indiqué.

5 Les stations disposant d'un diffuseur peuvent indiquer "trace". Cela signifie que des précipitations ont touchés le sol mais que la quantité est inférieure à 0.1 mm.

Récapitulatif de la journée
Température [°C] Vent [km/h] Ensoleillement4 [h] Precipitations totale5 [mm] Pression [Hpa]
Min1 Max.2 Moy.3 Max. Min Max.
13.7 32.1 9.4 18.5 0 h 0 min 0 1015.0 1018.3

1 Température minimale relevée entre 18:00 UTC la veille et 18:00 UTC le jour donné.

2 Température maximale relevée entre 06:00 UTC le jour donné et 06:00 UTC le lendemain.

3 Vent moyen de la journée basé sur les relevés horaires.

4 Ensoleillement en heures relevé entre 06:00 UTC la veille et 06:00 UTC le jour donné.

5 Précipitations totales tombées entre 06:00 UTC la jour donné et 06:00 UTC le lendemain.

Graphiques horaires